createdAt,value
2023-05-05T00:02:47.626Z,8
2023-05-05T00:08:39.577Z,7.8
2023-05-05T00:14:31.219Z,7.9
2023-05-05T00:20:24.350Z,7.9
2023-05-05T00:26:15.404Z,7.7
2023-05-05T00:32:10.599Z,7.8
2023-05-05T00:38:02.547Z,7.7
2023-05-05T00:43:53.583Z,7.6
2023-05-05T00:49:45.688Z,7.6
2023-05-05T00:55:37.985Z,7.6
2023-05-05T01:01:29.316Z,7.6
2023-05-05T01:07:21.198Z,7.6
2023-05-05T01:13:28.323Z,7.5
2023-05-05T01:19:20.036Z,7.4
2023-05-05T01:25:11.186Z,7.4
2023-05-05T01:31:02.746Z,7.3
2023-05-05T01:36:54.233Z,7.3
2023-05-05T01:42:30.392Z,7.5
2023-05-05T01:48:21.704Z,7.1
2023-05-05T01:53:58.696Z,7.3
2023-05-05T01:59:49.687Z,7.4
2023-05-05T02:05:42.837Z,7.3
2023-05-05T02:11:34.383Z,7.3
2023-05-05T02:17:26.361Z,7.3
2023-05-05T02:23:18.460Z,7.1
2023-05-05T02:29:09.549Z,7
2023-05-05T02:35:01.563Z,7.1
2023-05-05T02:40:53.108Z,7.2
2023-05-05T02:46:44.549Z,7.3
2023-05-05T02:52:20.428Z,7.4
2023-05-05T02:57:56.826Z,7.5
2023-05-05T03:03:49.014Z,7.6
2023-05-05T03:09:40.847Z,7.6
2023-05-05T03:15:17.171Z,7.7
2023-05-05T03:21:10.286Z,7.8
2023-05-05T03:27:02.421Z,7.8
2023-05-05T03:32:55.134Z,7.8
2023-05-05T03:38:46.961Z,8
2023-05-05T03:44:38.549Z,8.1
2023-05-05T03:50:15.684Z,7.9
2023-05-05T03:55:51.369Z,8
2023-05-05T04:01:42.606Z,7.8
2023-05-05T04:07:37.231Z,7.7
2023-05-05T04:13:28.313Z,7.8
2023-05-05T04:19:19.400Z,7.9
2023-05-05T04:25:11.291Z,8.1
2023-05-05T04:30:46.937Z,8.3
2023-05-05T04:36:07.574Z,8.5
2023-05-05T04:41:30.000Z,8.6
2023-05-05T04:46:50.822Z,8.8
2023-05-05T04:52:11.830Z,8.8
2023-05-05T04:57:48.389Z,8.9
2023-05-05T05:03:24.983Z,8.8
2023-05-05T05:08:45.754Z,9.1
2023-05-05T05:13:51.690Z,9.1
2023-05-05T05:19:43.718Z,9.6
2023-05-05T05:25:19.644Z,9.8
2023-05-05T05:31:10.102Z,9.8
2023-05-05T05:36:46.397Z,10.1
2023-05-05T05:42:06.307Z,10.3
2023-05-05T05:47:58.387Z,10.4
2023-05-05T05:53:19.777Z,10.5
2023-05-05T05:58:55.629Z,11.1
2023-05-05T06:04:34.137Z,11.3
2023-05-05T06:10:25.548Z,11.8
2023-05-05T06:16:04.416Z,11.9
2023-05-05T06:21:41.012Z,12.3
2023-05-05T06:27:17.374Z,12.8
2023-05-05T06:32:37.755Z,12.7
2023-05-05T06:37:59.318Z,13.1
2023-05-05T06:43:20.650Z,13.3
2023-05-05T06:48:41.326Z,13.2
2023-05-05T06:53:47.016Z,13.2
2023-05-05T06:58:53.085Z,14.1
2023-05-05T07:04:14.131Z,14.2
2023-05-05T07:09:35.496Z,14.4
2023-05-05T07:14:58.156Z,14.6
2023-05-05T07:20:47.347Z,14.9
2023-05-05T07:26:08.983Z,14.9
2023-05-05T07:31:34.167Z,14.9
2023-05-05T07:37:11.340Z,16
2023-05-05T07:42:47.738Z,15
2023-05-05T07:48:27.940Z,16.6
2023-05-05T07:54:22.099Z,16.6
2023-05-05T07:59:58.653Z,16.7
2023-05-05T08:05:23.549Z,16.4
2023-05-05T08:11:00.310Z,17.6
2023-05-05T08:16:37.602Z,18.2
2023-05-05T08:22:26.950Z,18.6
2023-05-05T08:28:03.968Z,18.5
2023-05-05T08:33:40.619Z,16.9
2023-05-05T08:39:17.919Z,18.5
2023-05-05T08:45:13.356Z,18
2023-05-05T08:50:50.644Z,18.6
2023-05-05T08:56:12.884Z,17.9
2023-05-05T09:01:49.936Z,17.8
2023-05-05T09:07:11.582Z,18.1
2023-05-05T09:12:17.124Z,18.5
2023-05-05T09:17:23.004Z,18.3
2023-05-05T09:22:45.578Z,19.3
2023-05-05T09:28:07.691Z,20
2023-05-05T09:33:29.222Z,20.3
2023-05-05T09:38:51.280Z,19.9
2023-05-05T09:44:28.078Z,21.2
2023-05-05T09:50:21.218Z,21.6
2023-05-05T09:55:42.697Z,20.3
2023-05-05T10:01:03.938Z,19.1
2023-05-05T10:06:25.749Z,20.8
2023-05-05T10:12:02.750Z,20.1
2023-05-05T10:17:23.876Z,20.6
2023-05-05T10:22:56.590Z,20.1
2023-05-05T10:28:19.434Z,21.8
2023-05-05T10:34:34.191Z,21.3
2023-05-05T10:39:55.371Z,20.4
2023-05-05T10:45:16.414Z,19.9
2023-05-05T10:50:41.454Z,20.3
2023-05-05T10:56:29.287Z,19.6
2023-05-05T11:02:08.794Z,20.6
2023-05-05T11:07:15.679Z,20.8
2023-05-05T11:12:55.271Z,22
2023-05-05T11:18:16.967Z,20.4
2023-05-05T11:23:38.500Z,20.6
2023-05-05T11:29:00.085Z,21.6
2023-05-05T11:34:25.794Z,21.1
2023-05-05T11:39:49.363Z,21.6
2023-05-05T11:45:31.815Z,20.7
2023-05-05T11:50:54.141Z,21.4
2023-05-05T11:56:33.383Z,20.3
2023-05-05T12:07:21.461Z,20.6
2023-05-05T12:12:59.166Z,21.4
2023-05-05T12:18:06.813Z,20.9
2023-05-05T12:23:58.835Z,19.8
2023-05-05T12:29:36.450Z,20.6
2023-05-05T12:34:59.582Z,20.5
2023-05-05T12:40:20.954Z,20.3
2023-05-05T12:45:42.662Z,21.3
2023-05-05T12:51:22.841Z,20.9
2023-05-05T12:57:15.350Z,18.6
2023-05-05T13:02:39.254Z,21.3
2023-05-05T13:08:32.512Z,21.6
2023-05-05T13:14:27.008Z,22.1
2023-05-05T13:20:20.206Z,20.9
2023-05-05T13:26:36.771Z,20.8
2023-05-05T13:32:15.981Z,20.4
2023-05-05T13:38:08.683Z,21.1
2023-05-05T13:43:46.316Z,21.3
2023-05-05T13:55:31.933Z,21.6
2023-05-05T14:01:26.788Z,20.6
2023-05-05T14:07:22.655Z,20.6
2023-05-05T14:13:16.412Z,20.6
2023-05-05T14:18:54.231Z,20.2
2023-05-05T14:24:48.421Z,19.9
2023-05-05T14:30:41.403Z,20.1
2023-05-05T14:36:35.927Z,19.6
2023-05-05T14:42:29.413Z,20.1
2023-05-05T14:48:23.045Z,19.8
2023-05-05T14:54:27.135Z,19.9
2023-05-05T15:00:21.215Z,20.4
2023-05-05T15:06:18.260Z,20.9
2023-05-05T15:12:11.851Z,20.2
2023-05-05T15:17:50.531Z,19.5
2023-05-05T15:23:29.910Z,19.3
2023-05-05T15:29:08.131Z,19.1
2023-05-05T15:35:01.550Z,20.4
2023-05-05T15:40:56.076Z,21.3
2023-05-05T15:46:50.825Z,21.8
2023-05-05T15:52:30.059Z,21.3
2023-05-05T15:58:27.867Z,22.4
2023-05-05T16:04:09.470Z,21.9
2023-05-05T16:10:04.827Z,20.9
2023-05-05T16:16:01.227Z,20.9
2023-05-05T16:21:41.233Z,20.2
2023-05-05T16:27:21.338Z,20.5
2023-05-05T16:33:02.249Z,19.8
2023-05-05T16:44:39.337Z,17.1
2023-05-05T16:50:34.975Z,16.5
2023-05-05T16:56:00.082Z,16.1
2023-05-05T17:01:25.218Z,15.7
2023-05-05T17:07:06.685Z,15.6
2023-05-05T17:12:47.646Z,15.3
2023-05-05T17:18:45.399Z,15.1
2023-05-05T17:24:45.020Z,14.9
2023-05-05T17:30:42.676Z,14.8
2023-05-05T17:36:40.907Z,14.6
2023-05-05T17:42:39.912Z,14.3
2023-05-05T17:48:38.133Z,14.1
2023-05-05T17:54:35.816Z,14
2023-05-05T18:00:34.209Z,13.9
2023-05-05T18:06:35.750Z,13.8
2023-05-05T18:12:34.261Z,13.7
2023-05-05T18:18:33.010Z,13.6
2023-05-05T18:24:44.856Z,13.6
2023-05-05T18:30:41.493Z,13.4
2023-05-05T18:36:42.647Z,12.9
2023-05-05T18:42:40.294Z,12.8
2023-05-05T18:48:39.137Z,12.9
2023-05-05T18:54:38.905Z,12.9
2023-05-05T19:00:37.988Z,12.8
2023-05-05T19:06:52.575Z,12.6
2023-05-05T19:13:13.111Z,12.5
2023-05-05T19:19:11.906Z,12.3
2023-05-05T19:25:12.963Z,12.1
2023-05-05T19:31:11.299Z,12
2023-05-05T19:37:11.414Z,11.9
2023-05-05T19:43:09.699Z,11.7
2023-05-05T19:49:08.298Z,11.6
2023-05-05T19:55:07.030Z,11.2
2023-05-05T20:01:05.391Z,11.2
2023-05-05T20:07:04.224Z,11
2023-05-05T20:13:02.894Z,11.1
2023-05-05T20:19:02.044Z,10.9
2023-05-05T20:25:01.094Z,10.7
2023-05-05T20:30:59.396Z,10.7
2023-05-05T20:36:56.901Z,10.6
2023-05-05T20:42:55.726Z,10.4
2023-05-05T20:48:58.672Z,10.3
2023-05-05T20:54:57.128Z,10.4
2023-05-05T21:00:55.835Z,10.3
2023-05-05T21:06:56.187Z,9.8
2023-05-05T21:12:53.838Z,9.6
2023-05-05T21:18:51.992Z,9.6
2023-05-05T21:24:50.263Z,9.3
2023-05-05T21:30:55.060Z,9.1
2023-05-05T21:37:03.709Z,9
2023-05-05T21:43:01.815Z,9.1
2023-05-05T21:48:59.059Z,8.9
2023-05-05T21:54:55.397Z,8.7
2023-05-05T22:00:51.261Z,8.6
2023-05-05T22:06:31.664Z,8.3
2023-05-05T22:12:26.705Z,8.2
2023-05-05T22:18:28.372Z,8.1
2023-05-05T22:24:22.354Z,8.2
2023-05-05T22:30:16.966Z,8.5
2023-05-05T22:36:13.201Z,8.9
2023-05-05T22:41:51.865Z,8.3
2023-05-05T22:47:46.182Z,8
2023-05-05T22:53:24.287Z,7.8
2023-05-05T22:59:18.448Z,8.1
2023-05-05T23:05:12.779Z,8.1
2023-05-05T23:11:05.737Z,8.1
2023-05-05T23:16:58.766Z,7.9
2023-05-05T23:22:59.923Z,7.7
2023-05-05T23:28:36.579Z,7.6
2023-05-05T23:34:13.678Z,7.6
2023-05-05T23:39:50.303Z,7.4
2023-05-05T23:45:26.984Z,7.1
2023-05-05T23:51:03.645Z,6.9
2023-05-05T23:56:40.019Z,6.6
